sensor_id;sensor_type;location;lat;lon;timestamp;pressure;altitude;pressure_sealevel;temperature;humidity
36664;BME280;53333;51.976;20.144;2023-08-06T00:00:29;98996.38;;;20.55;75.51
36664;BME280;53333;51.976;20.144;2023-08-06T00:03:05;98994.50;;;20.56;75.27
36664;BME280;53333;51.976;20.144;2023-08-06T00:05:42;99003.50;;;20.56;75.62
36664;BME280;53333;51.976;20.144;2023-08-06T00:08:15;99005.19;;;20.57;75.44
36664;BME280;53333;51.976;20.144;2023-08-06T00:10:48;98993.16;;;20.60;75.49
36664;BME280;53333;51.976;20.144;2023-08-06T00:13:21;98954.34;;;20.59;74.98
36664;BME280;53333;51.976;20.144;2023-08-06T00:15:54;98928.41;;;20.57;75.46
36664;BME280;53333;51.976;20.144;2023-08-06T00:18:30;98911.28;;;20.56;75.10
36664;BME280;53333;51.976;20.144;2023-08-06T00:21:04;98915.03;;;20.55;75.17
36664;BME280;53333;51.976;20.144;2023-08-06T00:23:37;98907.91;;;20.54;75.12
36664;BME280;53333;51.976;20.144;2023-08-06T00:26:10;98891.13;;;20.50;75.11
36664;BME280;53333;51.976;20.144;2023-08-06T00:28:43;98890.97;;;20.52;75.52
36664;BME280;53333;51.976;20.144;2023-08-06T00:31:18;98875.69;;;20.51;75.75
36664;BME280;53333;51.976;20.144;2023-08-06T00:33:51;98881.13;;;20.51;75.36
36664;BME280;53333;51.976;20.144;2023-08-06T00:36:28;98897.06;;;20.54;75.65
36664;BME280;53333;51.976;20.144;2023-08-06T00:39:00;98895.34;;;20.53;75.43
36664;BME280;53333;51.976;20.144;2023-08-06T00:41:34;98887.38;;;20.51;75.60
36664;BME280;53333;51.976;20.144;2023-08-06T00:44:09;98883.16;;;20.49;75.51
36664;BME280;53333;51.976;20.144;2023-08-06T00:46:44;98890.41;;;20.48;75.71
36664;BME280;53333;51.976;20.144;2023-08-06T00:49:20;98872.31;;;20.49;76.05
36664;BME280;53333;51.976;20.144;2023-08-06T00:51:58;98886.53;;;20.51;75.66
36664;BME280;53333;51.976;20.144;2023-08-06T00:54:35;98882.81;;;20.52;75.56
36664;BME280;53333;51.976;20.144;2023-08-06T00:57:12;98881.63;;;20.55;75.82
36664;BME280;53333;51.976;20.144;2023-08-06T00:59:45;98872.66;;;20.54;75.79
36664;BME280;53333;51.976;20.144;2023-08-06T01:02:18;98878.56;;;20.58;75.82
36664;BME280;53333;51.976;20.144;2023-08-06T01:04:51;98867.53;;;20.59;76.06
36664;BME280;53333;51.976;20.144;2023-08-06T01:07:34;98867.06;;;20.64;76.15
36664;BME280;53333;51.976;20.144;2023-08-06T01:10:23;98874.03;;;20.66;75.67
36664;BME280;53333;51.976;20.144;2023-08-06T01:13:05;98874.69;;;20.68;76.04
36664;BME280;53333;51.976;20.144;2023-08-06T01:15:46;98869.09;;;20.70;75.75
36664;BME280;53333;51.976;20.144;2023-08-06T01:18:19;98862.66;;;20.71;75.56
36664;BME280;53333;51.976;20.144;2023-08-06T01:20:59;98855.19;;;20.73;75.85
36664;BME280;53333;51.976;20.144;2023-08-06T01:23:33;98852.31;;;20.75;76.06
36664;BME280;53333;51.976;20.144;2023-08-06T01:26:13;98844.84;;;20.77;76.09
36664;BME280;53333;51.976;20.144;2023-08-06T01:28:52;98842.78;;;20.79;75.99
36664;BME280;53333;51.976;20.144;2023-08-06T01:31:31;98843.50;;;20.81;75.75
36664;BME280;53333;51.976;20.144;2023-08-06T01:34:06;98835.19;;;20.82;76.04
36664;BME280;53333;51.976;20.144;2023-08-06T01:36:41;98836.84;;;20.83;75.61
36664;BME280;53333;51.976;20.144;2023-08-06T01:39:14;98833.13;;;20.84;75.94
36664;BME280;53333;51.976;20.144;2023-08-06T01:41:47;98836.69;;;20.85;75.93
36664;BME280;53333;51.976;20.144;2023-08-06T01:44:21;98843.81;;;20.86;75.76
36664;BME280;53333;51.976;20.144;2023-08-06T01:46:54;98842.63;;;20.89;75.91
36664;BME280;53333;51.976;20.144;2023-08-06T01:49:27;98839.91;;;20.89;75.82
36664;BME280;53333;51.976;20.144;2023-08-06T01:52:02;98848.06;;;20.89;76.18
36664;BME280;53333;51.976;20.144;2023-08-06T01:54:37;98835.00;;;20.92;75.82
36664;BME280;53333;51.976;20.144;2023-08-06T01:57:12;98834.13;;;20.92;75.60
36664;BME280;53333;51.976;20.144;2023-08-06T01:59:47;98842.09;;;20.93;75.86
36664;BME280;53333;51.976;20.144;2023-08-06T02:02:23;98863.78;;;20.93;76.09
36664;BME280;53333;51.976;20.144;2023-08-06T02:04:55;98878.41;;;20.92;75.80
36664;BME280;53333;51.976;20.144;2023-08-06T02:07:31;98904.88;;;20.90;76.05
36664;BME280;53333;51.976;20.144;2023-08-06T02:10:05;98927.75;;;20.88;76.11
36664;BME280;53333;51.976;20.144;2023-08-06T02:12:38;98930.13;;;20.82;75.76
36664;BME280;53333;51.976;20.144;2023-08-06T02:15:11;98949.31;;;20.81;76.19
36664;BME280;53333;51.976;20.144;2023-08-06T02:17:44;98933.38;;;20.78;76.35
36664;BME280;53333;51.976;20.144;2023-08-06T02:20:17;98812.28;;;20.77;76.24
36664;BME280;53333;51.976;20.144;2023-08-06T02:22:51;98761.25;;;20.72;76.42
36664;BME280;53333;51.976;20.144;2023-08-06T02:25:24;98752.47;;;20.70;76.61
36664;BME280;53333;51.976;20.144;2023-08-06T02:27:57;98647.34;;;20.72;76.49
36664;BME280;53333;51.976;20.144;2023-08-06T02:30:30;98525.81;;;20.67;76.33
36664;BME280;53333;51.976;20.144;2023-08-06T02:33:03;98490.22;;;20.62;76.96
36664;BME280;53333;51.976;20.144;2023-08-06T02:35:39;98512.28;;;20.59;76.75
36664;BME280;53333;51.976;20.144;2023-08-06T02:38:13;98525.34;;;20.56;77.01
36664;BME280;53333;51.976;20.144;2023-08-06T02:40:46;98598.75;;;20.54;77.26
36664;BME280;53333;51.976;20.144;2023-08-06T02:43:20;98647.72;;;20.53;77.08
36664;BME280;53333;51.976;20.144;2023-08-06T02:46:04;98687.22;;;20.55;77.51
36664;BME280;53333;51.976;20.144;2023-08-06T02:48:38;98699.75;;;20.56;77.17
36664;BME280;53333;51.976;20.144;2023-08-06T02:51:11;98688.56;;;20.59;76.96
36664;BME280;53333;51.976;20.144;2023-08-06T02:53:49;98681.47;;;20.58;77.02
36664;BME280;53333;51.976;20.144;2023-08-06T02:56:23;98681.47;;;20.58;77.32
36664;BME280;53333;51.976;20.144;2023-08-06T02:59:18;98649.91;;;20.57;77.15
36664;BME280;53333;51.976;20.144;2023-08-06T03:02:20;98633.00;;;20.55;77.30
36664;BME280;53333;51.976;20.144;2023-08-06T03:05:01;98624.84;;;20.55;77.41
36664;BME280;53333;51.976;20.144;2023-08-06T03:07:42;98603.16;;;20.55;77.46
36664;BME280;53333;51.976;20.144;2023-08-06T03:10:23;98594.16;;;20.55;77.17
36664;BME280;53333;51.976;20.144;2023-08-06T03:12:59;98587.25;;;20.52;77.63
36664;BME280;53333;51.976;20.144;2023-08-06T03:15:32;98592.66;;;20.52;77.50
36664;BME280;53333;51.976;20.144;2023-08-06T03:18:08;98601.63;;;20.53;77.78
36664;BME280;53333;51.976;20.144;2023-08-06T03:20:44;98596.88;;;20.55;77.50
36664;BME280;53333;51.976;20.144;2023-08-06T03:23:18;98602.28;;;20.55;77.75
36664;BME280;53333;51.976;20.144;2023-08-06T03:25:52;98581.28;;;20.65;77.17
36664;BME280;53333;51.976;20.144;2023-08-06T03:28:25;98576.03;;;20.55;76.96
36664;BME280;53333;51.976;20.144;2023-08-06T03:31:02;98569.09;;;20.53;77.43
36664;BME280;53333;51.976;20.144;2023-08-06T03:33:46;98574.88;;;20.49;77.38
36664;BME280;53333;51.976;20.144;2023-08-06T03:36:26;98576.75;;;20.49;77.37
36664;BME280;53333;51.976;20.144;2023-08-06T03:38:59;98559.78;;;20.47;77.53
36664;BME280;53333;51.976;20.144;2023-08-06T03:41:36;98556.25;;;20.46;77.87
36664;BME280;53333;51.976;20.144;2023-08-06T03:44:09;98554.38;;;20.47;77.87
36664;BME280;53333;51.976;20.144;2023-08-06T03:46:51;98542.50;;;20.48;77.66
36664;BME280;53333;51.976;20.144;2023-08-06T03:49:30;98543.34;;;20.48;77.71
36664;BME280;53333;51.976;20.144;2023-08-06T03:52:05;98533.72;;;20.46;77.56
36664;BME280;53333;51.976;20.144;2023-08-06T03:54:39;98527.97;;;20.41;77.82
36664;BME280;53333;51.976;20.144;2023-08-06T03:57:17;98529.00;;;20.40;77.73
36664;BME280;53333;51.976;20.144;2023-08-06T03:59:53;98531.06;;;20.38;77.83
36664;BME280;53333;51.976;20.144;2023-08-06T04:02:29;98530.19;;;20.37;78.30
36664;BME280;53333;51.976;20.144;2023-08-06T04:05:04;98530.19;;;20.37;78.40
36664;BME280;53333;51.976;20.144;2023-08-06T04:07:39;98524.94;;;20.36;78.28
36664;BME280;53333;51.976;20.144;2023-08-06T04:10:12;98515.31;;;20.33;77.94
36664;BME280;53333;51.976;20.144;2023-08-06T04:12:46;98519.88;;;20.32;78.17
36664;BME280;53333;51.976;20.144;2023-08-06T04:15:20;98527.81;;;20.34;78.51
36664;BME280;53333;51.976;20.144;2023-08-06T04:17:57;98527.66;;;20.36;78.10
36664;BME280;53333;51.976;20.144;2023-08-06T04:20:42;98536.13;;;20.41;78.59
36664;BME280;53333;51.976;20.144;2023-08-06T04:23:15;98539.50;;;20.43;78.06
36664;BME280;53333;51.976;20.144;2023-08-06T04:25:49;98534.06;;;20.43;77.98
36664;BME280;53333;51.976;20.144;2023-08-06T04:28:23;98523.22;;;20.43;78.01
36664;BME280;53333;51.976;20.144;2023-08-06T04:30:59;98511.16;;;20.45;78.39
36664;BME280;53333;51.976;20.144;2023-08-06T04:33:35;98503.53;;;20.49;78.46
36664;BME280;53333;51.976;20.144;2023-08-06T04:36:12;98496.06;;;20.51;78.08
36664;BME280;53333;51.976;20.144;2023-08-06T04:38:45;98474.00;;;20.54;78.25
36664;BME280;53333;51.976;20.144;2023-08-06T04:41:20;98472.81;;;20.57;78.25
36664;BME280;53333;51.976;20.144;2023-08-06T04:43:56;98468.88;;;20.59;77.78
36664;BME280;53333;51.976;20.144;2023-08-06T04:46:29;98469.34;;;20.63;78.06
36664;BME280;53333;51.976;20.144;2023-08-06T04:49:02;98467.19;;;20.66;77.61
36664;BME280;53333;51.976;20.144;2023-08-06T04:51:35;98470.19;;;20.72;77.89
36664;BME280;53333;51.976;20.144;2023-08-06T04:54:08;98469.84;;;20.75;77.47
36664;BME280;53333;51.976;20.144;2023-08-06T04:56:41;98467.78;;;20.77;77.37
36664;BME280;53333;51.976;20.144;2023-08-06T04:59:15;98469.47;;;20.78;77.63
36664;BME280;53333;51.976;20.144;2023-08-06T05:01:48;98469.13;;;20.81;77.45
36664;BME280;53333;51.976;20.144;2023-08-06T05:04:22;98466.22;;;20.82;77.29
36664;BME280;53333;51.976;20.144;2023-08-06T05:06:55;98462.28;;;20.85;77.20
36664;BME280;53333;51.976;20.144;2023-08-06T05:09:28;98466.69;;;20.86;77.20
36664;BME280;53333;51.976;20.144;2023-08-06T05:12:01;98463.63;;;20.89;77.44
36664;BME280;53333;51.976;20.144;2023-08-06T05:14:35;98463.63;;;20.89;77.47
36664;BME280;53333;51.976;20.144;2023-08-06T05:17:08;98469.88;;;20.90;77.08
36664;BME280;53333;51.976;20.144;2023-08-06T05:19:41;98466.16;;;20.91;77.37
36664;BME280;53333;51.976;20.144;2023-08-06T05:22:14;98464.75;;;20.95;77.20
36664;BME280;53333;51.976;20.144;2023-08-06T05:24:50;98463.72;;;20.96;77.42
36664;BME280;53333;51.976;20.144;2023-08-06T05:27:23;98455.22;;;20.99;77.36
36664;BME280;53333;51.976;20.144;2023-08-06T05:29:57;98451.13;;;21.03;76.99
36664;BME280;53333;51.976;20.144;2023-08-06T05:32:31;98448.06;;;21.06;77.00
36664;BME280;53333;51.976;20.144;2023-08-06T05:35:04;98454.13;;;21.08;76.98
36664;BME280;53333;51.976;20.144;2023-08-06T05:37:46;98452.72;;;21.12;76.94
36664;BME280;53333;51.976;20.144;2023-08-06T05:40:19;98442.38;;;21.16;76.69
36664;BME280;53333;51.976;20.144;2023-08-06T05:42:53;98433.34;;;21.15;76.99
36664;BME280;53333;51.976;20.144;2023-08-06T05:45:27;98441.31;;;21.17;76.74
36664;BME280;53333;51.976;20.144;2023-08-06T05:48:00;98436.56;;;21.19;77.02
36664;BME280;53333;51.976;20.144;2023-08-06T05:50:33;98443.47;;;21.21;76.47
36664;BME280;53333;51.976;20.144;2023-08-06T05:53:06;98442.28;;;21.24;76.75
36664;BME280;53333;51.976;20.144;2023-08-06T05:55:39;98432.66;;;21.36;76.54
36664;BME280;53333;51.976;20.144;2023-08-06T05:58:12;98432.34;;;21.31;76.32
36664;BME280;53333;51.976;20.144;2023-08-06T06:00:46;98436.94;;;21.31;76.46
36664;BME280;53333;51.976;20.144;2023-08-06T06:03:19;98436.94;;;21.31;76.60
36664;BME280;53333;51.976;20.144;2023-08-06T06:05:52;98436.94;;;21.31;76.46
36664;BME280;53333;51.976;20.144;2023-08-06T06:08:25;98423.19;;;21.32;76.26
36664;BME280;53333;51.976;20.144;2023-08-06T06:10:58;98417.38;;;21.35;76.69
36664;BME280;53333;51.976;20.144;2023-08-06T06:13:31;98416.66;;;21.41;76.64
36664;BME280;53333;51.976;20.144;2023-08-06T06:16:06;98411.50;;;21.47;76.16
36664;BME280;53333;51.976;20.144;2023-08-06T06:18:39;98399.72;;;21.54;76.44
36664;BME280;53333;51.976;20.144;2023-08-06T06:21:15;98398.78;;;21.62;76.02
36664;BME280;53333;51.976;20.144;2023-08-06T06:23:48;98406.84;;;21.70;75.90
36664;BME280;53333;51.976;20.144;2023-08-06T06:26:24;98392.50;;;21.76;75.82
36664;BME280;53333;51.976;20.144;2023-08-06T06:28:57;98392.78;;;21.82;75.36
36664;BME280;53333;51.976;20.144;2023-08-06T06:31:31;98381.97;;;21.88;75.49
36664;BME280;53333;51.976;20.144;2023-08-06T06:34:07;98375.78;;;21.94;75.09
36664;BME280;53333;51.976;20.144;2023-08-06T06:36:40;98374.56;;;21.97;74.86
36664;BME280;53333;51.976;20.144;2023-08-06T06:39:13;98366.88;;;22.01;74.89
36664;BME280;53333;51.976;20.144;2023-08-06T06:41:45;98359.81;;;22.06;74.79
36664;BME280;53333;51.976;20.144;2023-08-06T06:44:28;98354.91;;;22.17;74.50
36664;BME280;53333;51.976;20.144;2023-08-06T06:47:02;98352.72;;;22.27;73.77
36664;BME280;53333;51.976;20.144;2023-08-06T06:49:35;98350.56;;;22.37;74.02
36664;BME280;53333;51.976;20.144;2023-08-06T06:52:08;98362.13;;;22.46;73.29
36664;BME280;53333;51.976;20.144;2023-08-06T06:54:47;98362.97;;;22.46;73.47
36664;BME280;53333;51.976;20.144;2023-08-06T06:57:23;98357.31;;;22.48;73.12
36664;BME280;53333;51.976;20.144;2023-08-06T06:59:55;98353.13;;;22.45;73.20
36664;BME280;53333;51.976;20.144;2023-08-06T07:02:30;98358.38;;;22.47;72.93
36664;BME280;53333;51.976;20.144;2023-08-06T07:05:07;98359.47;;;22.53;73.09
36664;BME280;53333;51.976;20.144;2023-08-06T07:07:41;98352.63;;;22.57;72.68
36664;BME280;53333;51.976;20.144;2023-08-06T07:10:14;98345.34;;;22.64;72.37
36664;BME280;53333;51.976;20.144;2023-08-06T07:12:47;98343.09;;;22.67;72.48
36664;BME280;53333;51.976;20.144;2023-08-06T07:15:20;98338.09;;;22.71;72.30
36664;BME280;53333;51.976;20.144;2023-08-06T07:17:57;98330.56;;;22.73;72.16
36664;BME280;53333;51.976;20.144;2023-08-06T07:20:30;98335.59;;;22.76;72.26
36664;BME280;53333;51.976;20.144;2023-08-06T07:23:05;98335.66;;;22.83;71.63
36664;BME280;53333;51.976;20.144;2023-08-06T07:25:39;98328.19;;;22.92;71.56
36664;BME280;53333;51.976;20.144;2023-08-06T07:28:12;98327.00;;;23.01;71.38
36664;BME280;53333;51.976;20.144;2023-08-06T07:30:45;98325.41;;;23.13;71.50
36664;BME280;53333;51.976;20.144;2023-08-06T07:33:20;98318.16;;;23.20;71.49
36664;BME280;53333;51.976;20.144;2023-08-06T07:35:53;98324.84;;;23.25;71.01
36664;BME280;53333;51.976;20.144;2023-08-06T07:38:26;98321.53;;;23.29;70.50
36664;BME280;53333;51.976;20.144;2023-08-06T07:41:01;98325.31;;;23.28;70.22
36664;BME280;53333;51.976;20.144;2023-08-06T07:43:34;98330.97;;;23.27;70.13
36664;BME280;53333;51.976;20.144;2023-08-06T07:46:08;98332.63;;;23.28;70.37
36664;BME280;53333;51.976;20.144;2023-08-06T07:48:42;98331.63;;;23.35;70.54
36664;BME280;53333;51.976;20.144;2023-08-06T07:51:15;98334.91;;;23.24;70.33
36664;BME280;53333;51.976;20.144;2023-08-06T07:53:48;98333.47;;;23.21;70.51
36664;BME280;53333;51.976;20.144;2023-08-06T07:56:21;98331.13;;;23.18;70.42
36664;BME280;53333;51.976;20.144;2023-08-06T07:58:57;98345.97;;;23.16;70.49
36664;BME280;53333;51.976;20.144;2023-08-06T08:01:30;98338.44;;;23.18;70.64
36664;BME280;53333;51.976;20.144;2023-08-06T08:04:05;98322.97;;;23.18;70.50
36664;BME280;53333;51.976;20.144;2023-08-06T08:06:37;98330.50;;;23.23;70.82
36664;BME280;53333;51.976;20.144;2023-08-06T08:09:10;98327.66;;;23.31;70.19
36664;BME280;53333;51.976;20.144;2023-08-06T08:11:45;98312.78;;;23.40;70.46
36664;BME280;53333;51.976;20.144;2023-08-06T08:14:18;98323.97;;;23.52;69.94
36664;BME280;53333;51.976;20.144;2023-08-06T08:16:51;98319.59;;;23.58;69.73
36664;BME280;53333;51.976;20.144;2023-08-06T08:19:29;98314.59;;;23.62;69.60
36664;BME280;53333;51.976;20.144;2023-08-06T08:22:02;98316.44;;;23.61;69.67
36664;BME280;53333;51.976;20.144;2023-08-06T08:24:35;98320.66;;;23.64;69.47
36664;BME280;53333;51.976;20.144;2023-08-06T08:27:08;98306.22;;;23.70;69.30
36664;BME280;53333;51.976;20.144;2023-08-06T08:29:41;98312.38;;;23.85;69.23
36664;BME280;53333;51.976;20.144;2023-08-06T08:32:14;98314.63;;;23.75;69.16
36664;BME280;53333;51.976;20.144;2023-08-06T08:34:50;98313.13;;;23.72;69.19
36664;BME280;53333;51.976;20.144;2023-08-06T08:37:23;98314.00;;;23.73;69.15
36664;BME280;53333;51.976;20.144;2023-08-06T08:39:56;98312.59;;;23.84;69.02
36664;BME280;53333;51.976;20.144;2023-08-06T08:42:29;98309.78;;;23.70;69.00
36664;BME280;53333;51.976;20.144;2023-08-06T08:45:04;98310.59;;;23.64;69.38
36664;BME280;53333;51.976;20.144;2023-08-06T08:47:45;98306.81;;;23.58;69.39
36664;BME280;53333;51.976;20.144;2023-08-06T08:50:21;98304.06;;;23.52;69.50
36664;BME280;53333;51.976;20.144;2023-08-06T08:52:54;98304.69;;;23.47;69.52
36664;BME280;53333;51.976;20.144;2023-08-06T08:55:28;98303.00;;;23.46;69.39
36664;BME280;53333;51.976;20.144;2023-08-06T08:58:01;98293.78;;;23.47;69.38
36664;BME280;53333;51.976;20.144;2023-08-06T09:00:34;98282.28;;;23.52;69.60
36664;BME280;53333;51.976;20.144;2023-08-06T09:03:08;98281.69;;;23.63;69.35
36664;BME280;53333;51.976;20.144;2023-08-06T09:05:44;98280.22;;;23.74;68.98
36664;BME280;53333;51.976;20.144;2023-08-06T09:08:24;98274.22;;;23.85;69.08
36664;BME280;53333;51.976;20.144;2023-08-06T09:11:01;98278.44;;;23.94;68.58
36664;BME280;53333;51.976;20.144;2023-08-06T09:13:36;98266.91;;;24.06;68.15
36664;BME280;53333;51.976;20.144;2023-08-06T09:16:09;98267.78;;;24.13;67.70
36664;BME280;53333;51.976;20.144;2023-08-06T09:18:42;98260.47;;;24.27;67.71
36664;BME280;53333;51.976;20.144;2023-08-06T09:21:17;98261.28;;;24.21;67.65
36664;BME280;53333;51.976;20.144;2023-08-06T09:23:50;98271.38;;;24.34;67.47
36664;BME280;53333;51.976;20.144;2023-08-06T09:26:22;98273.69;;;24.70;66.43
36664;BME280;53333;51.976;20.144;2023-08-06T09:28:59;98265.81;;;25.20;65.19
36664;BME280;53333;51.976;20.144;2023-08-06T09:31:41;98256.88;;;25.97;63.84
36664;BME280;53333;51.976;20.144;2023-08-06T09:34:15;98250.22;;;26.43;62.40
36664;BME280;53333;51.976;20.144;2023-08-06T09:36:52;98254.63;;;26.95;60.75
36664;BME280;53333;51.976;20.144;2023-08-06T09:39:26;98243.66;;;27.69;58.45
36664;BME280;53333;51.976;20.144;2023-08-06T09:42:01;98242.22;;;27.97;57.85
36664;BME280;53333;51.976;20.144;2023-08-06T09:44:35;98243.03;;;28.39;56.31
36664;BME280;53333;51.976;20.144;2023-08-06T09:47:07;98243.66;;;29.12;56.41
36664;BME280;53333;51.976;20.144;2023-08-06T09:49:41;98232.09;;;29.92;53.36
36664;BME280;53333;51.976;20.144;2023-08-06T09:52:18;98231.97;;;30.15;51.79
36664;BME280;53333;51.976;20.144;2023-08-06T09:54:52;98225.97;;;29.73;51.91
36664;BME280;53333;51.976;20.144;2023-08-06T09:57:26;98233.97;;;29.33;52.52
36664;BME280;53333;51.976;20.144;2023-08-06T09:59:59;98225.19;;;28.96;53.64
36664;BME280;53333;51.976;20.144;2023-08-06T10:02:33;98223.47;;;29.30;53.14
36664;BME280;53333;51.976;20.144;2023-08-06T10:05:07;98216.06;;;30.17;51.35
36664;BME280;53333;51.976;20.144;2023-08-06T10:07:42;98196.31;;;31.55;48.49
36664;BME280;53333;51.976;20.144;2023-08-06T10:10:16;98200.72;;;31.83;47.75
36664;BME280;53333;51.976;20.144;2023-08-06T10:12:54;98199.22;;;33.05;44.57
36664;BME280;53333;51.976;20.144;2023-08-06T10:15:29;98196.50;;;34.09;42.55
36664;BME280;53333;51.976;20.144;2023-08-06T10:18:04;98193.75;;;34.76;41.34
36664;BME280;53333;51.976;20.144;2023-08-06T10:20:38;98198.84;;;35.39;40.38
36664;BME280;53333;51.976;20.144;2023-08-06T10:23:13;98215.09;;;35.61;38.86
36664;BME280;53333;51.976;20.144;2023-08-06T10:25:53;98200.97;;;35.53;39.50
36664;BME280;53333;51.976;20.144;2023-08-06T10:28:34;98190.41;;;34.64;40.10
36664;BME280;53333;51.976;20.144;2023-08-06T10:31:08;98187.38;;;34.19;41.35
36664;BME280;53333;51.976;20.144;2023-08-06T10:33:42;98176.53;;;33.76;41.67
36664;BME280;53333;51.976;20.144;2023-08-06T10:36:16;98181.28;;;33.86;41.74
36664;BME280;53333;51.976;20.144;2023-08-06T10:38:50;98160.53;;;34.19;41.41
36664;BME280;53333;51.976;20.144;2023-08-06T10:41:30;98165.19;;;34.81;40.96
36664;BME280;53333;51.976;20.144;2023-08-06T10:44:06;98163.34;;;35.31;39.59
36664;BME280;53333;51.976;20.144;2023-08-06T10:46:40;98153.72;;;35.68;38.10
36664;BME280;53333;51.976;20.144;2023-08-06T10:49:13;98144.34;;;36.38;36.64
36664;BME280;53333;51.976;20.144;2023-08-06T10:51:50;98150.38;;;36.11;37.25
36664;BME280;53333;51.976;20.144;2023-08-06T10:54:26;98129.69;;;35.93;37.48
36664;BME280;53333;51.976;20.144;2023-08-06T10:56:59;98127.25;;;35.86;37.68
36664;BME280;53333;51.976;20.144;2023-08-06T10:59:33;98126.50;;;35.75;37.91
36664;BME280;53333;51.976;20.144;2023-08-06T11:02:05;98121.00;;;35.65;38.22
36664;BME280;53333;51.976;20.144;2023-08-06T11:04:39;98109.78;;;35.41;38.01
36664;BME280;53333;51.976;20.144;2023-08-06T11:07:13;98154.28;;;35.15;38.13
36664;BME280;53333;51.976;20.144;2023-08-06T11:09:51;98102.63;;;34.49;38.88
36664;BME280;53333;51.976;20.144;2023-08-06T11:12:25;98092.97;;;34.10;39.50
36664;BME280;53333;51.976;20.144;2023-08-06T11:14:59;98089.94;;;33.71;40.56
36664;BME280;53333;51.976;20.144;2023-08-06T11:17:34;98071.88;;;33.47;40.84
36664;BME280;53333;51.976;20.144;2023-08-06T11:20:08;98075.13;;;33.13;41.55
36664;BME280;53333;51.976;20.144;2023-08-06T11:22:41;98075.22;;;32.66;41.61
36664;BME280;53333;51.976;20.144;2023-08-06T11:25:16;98069.44;;;32.25;42.59
36664;BME280;53333;51.976;20.144;2023-08-06T11:27:48;98059.69;;;32.12;43.14
36664;BME280;53333;51.976;20.144;2023-08-06T11:30:21;98061.09;;;32.14;43.14
36664;BME280;53333;51.976;20.144;2023-08-06T11:32:58;98053.75;;;32.30;43.12
36664;BME280;53333;51.976;20.144;2023-08-06T11:35:34;98037.56;;;32.54;42.15
36664;BME280;53333;51.976;20.144;2023-08-06T11:38:07;98029.66;;;32.63;42.02
36664;BME280;53333;51.976;20.144;2023-08-06T11:40:47;98027.59;;;32.53;41.87
36664;BME280;53333;51.976;20.144;2023-08-06T11:43:25;98009.38;;;32.47;41.80
36664;BME280;53333;51.976;20.144;2023-08-06T11:46:00;98002.38;;;32.29;41.88
36664;BME280;53333;51.976;20.144;2023-08-06T11:48:50;97991.06;;;32.31;41.93
36664;BME280;53333;51.976;20.144;2023-08-06T11:51:23;97994.03;;;32.14;42.50
36664;BME280;53333;51.976;20.144;2023-08-06T11:54:00;98003.22;;;31.87;42.87
36664;BME280;53333;51.976;20.144;2023-08-06T11:56:35;97994.47;;;31.58;42.59
36664;BME280;53333;51.976;20.144;2023-08-06T11:59:08;97995.81;;;31.28;43.64
36664;BME280;53333;51.976;20.144;2023-08-06T12:01:44;97990.97;;;31.13;43.85
36664;BME280;53333;51.976;20.144;2023-08-06T12:04:17;97989.81;;;31.04;44.36
36664;BME280;53333;51.976;20.144;2023-08-06T12:06:50;97986.63;;;30.95;44.63
36664;BME280;53333;51.976;20.144;2023-08-06T12:09:24;97988.16;;;30.81;45.47
36664;BME280;53333;51.976;20.144;2023-08-06T12:11:59;97994.84;;;30.63;46.60
36664;BME280;53333;51.976;20.144;2023-08-06T12:14:32;98019.47;;;30.30;48.71
36664;BME280;53333;51.976;20.144;2023-08-06T12:17:05;98045.84;;;29.75;50.09
36664;BME280;53333;51.976;20.144;2023-08-06T12:19:37;98037.34;;;29.43;51.42
36664;BME280;53333;51.976;20.144;2023-08-06T12:22:10;98025.78;;;29.41;51.80
36664;BME280;53333;51.976;20.144;2023-08-06T12:24:46;98025.34;;;29.49;52.14
36664;BME280;53333;51.976;20.144;2023-08-06T12:27:21;98022.25;;;29.62;51.75
36664;BME280;53333;51.976;20.144;2023-08-06T12:29:54;98024.19;;;29.79;51.45
36664;BME280;53333;51.976;20.144;2023-08-06T12:32:27;98000.19;;;29.91;50.55
36664;BME280;53333;51.976;20.144;2023-08-06T12:35:00;98006.44;;;30.03;50.45
36664;BME280;53333;51.976;20.144;2023-08-06T12:37:33;98014.72;;;30.25;49.69
36664;BME280;53333;51.976;20.144;2023-08-06T12:40:07;98033.78;;;30.49;48.08
36664;BME280;53333;51.976;20.144;2023-08-06T12:42:47;98017.22;;;30.71;47.74
36664;BME280;53333;51.976;20.144;2023-08-06T12:45:20;98012.22;;;30.68;47.47
36664;BME280;53333;51.976;20.144;2023-08-06T12:47:53;98005.47;;;30.54;46.88
36664;BME280;53333;51.976;20.144;2023-08-06T12:50:27;98027.53;;;30.37;46.49
36664;BME280;53333;51.976;20.144;2023-08-06T12:52:59;98057.53;;;29.99;46.22
36664;BME280;53333;51.976;20.144;2023-08-06T12:55:32;98046.34;;;29.55;46.32
36664;BME280;53333;51.976;20.144;2023-08-06T12:58:07;98038.50;;;29.30;46.40
36664;BME280;53333;51.976;20.144;2023-08-06T13:00:40;98036.50;;;29.13;46.77
36664;BME280;53333;51.976;20.144;2023-08-06T13:03:13;98015.22;;;28.92;46.51
36664;BME280;53333;51.976;20.144;2023-08-06T13:05:46;98024.84;;;28.77;46.64
36664;BME280;53333;51.976;20.144;2023-08-06T13:08:19;98028.91;;;28.75;45.84
36664;BME280;53333;51.976;20.144;2023-08-06T13:10:51;98049.66;;;28.83;46.25
36664;BME280;53333;51.976;20.144;2023-08-06T13:13:26;98060.31;;;28.79;46.24
36664;BME280;53333;51.976;20.144;2023-08-06T13:15:59;98073.53;;;28.82;45.86
36664;BME280;53333;51.976;20.144;2023-08-06T13:18:32;98096.31;;;28.94;46.35
36664;BME280;53333;51.976;20.144;2023-08-06T13:21:05;98092.09;;;29.04;46.45
36664;BME280;53333;51.976;20.144;2023-08-06T13:23:37;98094.72;;;29.10;46.35
36664;BME280;53333;51.976;20.144;2023-08-06T13:26:10;98091.84;;;29.05;46.69
36664;BME280;53333;51.976;20.144;2023-08-06T13:28:44;98095.81;;;28.97;46.68